Lavoy, Canada
Current Conditions -  °F | °C
As of 11:17 PM on Sunday 21 Dec 2014 (Local Time) from CYED Reporting Station
Overcast Overcast  
Wind Chill: 23°   Ceiling: 300
Heat Index: 23°   Visibility: 3mi
Dew Point: 19°   Wind: 2mph
Humidity: 86%   Direction: 130°SE
Pressure: 29.59"   Gusts: NA
Location:  53.47°N, 111.87°W
Report Text: CYED 220617Z AUTO 13002KT 3SM OVC003 M05/M07 A2959
Loading
Personal Weather Stations






























Interactive Weather Map New forecast layout! Learn more

10-Day Weather Forecast

Advertisements
Track Severe Weather on mobile